sensor_id;sensor_type;location;lat;lon;timestamp;pressure;altitude;pressure_sealevel;temperature;humidity
59170;BME280;52474;52.236;5.114;2023-03-21T00:01:13;101686.06;;;8.69;100.00
59170;BME280;52474;52.236;5.114;2023-03-21T00:03:40;101662.38;;;8.54;100.00
59170;BME280;52474;52.236;5.114;2023-03-21T00:06:10;101679.19;;;8.66;100.00
59170;BME280;52474;52.236;5.114;2023-03-21T00:08:36;101663.97;;;8.57;100.00
59170;BME280;52474;52.236;5.114;2023-03-21T00:11:05;101672.22;;;8.65;100.00
59170;BME280;52474;52.236;5.114;2023-03-21T00:13:33;101677.91;;;8.59;100.00
59170;BME280;52474;52.236;5.114;2023-03-21T00:16:07;101679.31;;;8.65;100.00
59170;BME280;52474;52.236;5.114;2023-03-21T00:18:34;101667.03;;;8.64;100.00
59170;BME280;52474;52.236;5.114;2023-03-21T00:21:07;101672.44;;;8.62;100.00
59170;BME280;52474;52.236;5.114;2023-03-21T00:23:33;101670.44;;;8.66;100.00
59170;BME280;52474;52.236;5.114;2023-03-21T00:25:59;101665.91;;;8.68;100.00
59170;BME280;52474;52.236;5.114;2023-03-21T00:28:26;101627.13;;;8.41;100.00
59170;BME280;52474;52.236;5.114;2023-03-21T00:30:58;101678.34;;;8.66;100.00
59170;BME280;52474;52.236;5.114;2023-03-21T00:33:25;101669.38;;;8.68;100.00
59170;BME280;52474;52.236;5.114;2023-03-21T00:35:51;101660.91;;;8.63;100.00
59170;BME280;52474;52.236;5.114;2023-03-21T00:38:18;101663.56;;;8.63;100.00
59170;BME280;52474;52.236;5.114;2023-03-21T00:40:46;101652.34;;;8.59;100.00
59170;BME280;52474;52.236;5.114;2023-03-21T00:43:12;101656.47;;;8.64;100.00
59170;BME280;52474;52.236;5.114;2023-03-21T00:45:46;101663.25;;;8.68;100.00
59170;BME280;52474;52.236;5.114;2023-03-21T00:48:12;101652.59;;;8.69;100.00
59170;BME280;52474;52.236;5.114;2023-03-21T00:50:40;101650.91;;;8.68;100.00
59170;BME280;52474;52.236;5.114;2023-03-21T00:53:06;101656.94;;;8.70;100.00
59170;BME280;52474;52.236;5.114;2023-03-21T00:55:32;101644.78;;;8.68;100.00
59170;BME280;52474;52.236;5.114;2023-03-21T00:57:58;101634.63;;;8.62;100.00
59170;BME280;52474;52.236;5.114;2023-03-21T01:00:25;101635.09;;;8.54;100.00
59170;BME280;52474;52.236;5.114;2023-03-21T01:02:50;101635.34;;;8.64;100.00
59170;BME280;52474;52.236;5.114;2023-03-21T01:05:24;101641.50;;;8.64;100.00
59170;BME280;52474;52.236;5.114;2023-03-21T01:08:14;101629.97;;;8.65;100.00
59170;BME280;52474;52.236;5.114;2023-03-21T01:10:42;101631.78;;;8.65;100.00
59170;BME280;52474;52.236;5.114;2023-03-21T01:13:10;101619.50;;;8.64;100.00
59170;BME280;52474;52.236;5.114;2023-03-21T01:15:42;101623.00;;;8.64;100.00
59170;BME280;52474;52.236;5.114;2023-03-21T01:18:08;101620.47;;;8.63;100.00
59170;BME280;52474;52.236;5.114;2023-03-21T01:20:36;101604.44;;;8.51;100.00
59170;BME280;52474;52.236;5.114;2023-03-21T01:23:02;101615.09;;;8.64;100.00
59170;BME280;52474;52.236;5.114;2023-03-21T01:25:27;101616.97;;;8.62;100.00
59170;BME280;52474;52.236;5.114;2023-03-21T01:27:53;101594.84;;;8.50;100.00
59170;BME280;52474;52.236;5.114;2023-03-21T01:30:20;101597.84;;;8.58;100.00
59170;BME280;52474;52.236;5.114;2023-03-21T01:32:46;101600.59;;;8.57;100.00
59170;BME280;52474;52.236;5.114;2023-03-21T01:35:11;101607.25;;;8.63;100.00
59170;BME280;52474;52.236;5.114;2023-03-21T01:37:37;101589.16;;;8.56;100.00
59170;BME280;52474;52.236;5.114;2023-03-21T01:40:04;101604.63;;;8.63;100.00
59170;BME280;52474;52.236;5.114;2023-03-21T01:42:30;101590.03;;;8.57;100.00
59170;BME280;52474;52.236;5.114;2023-03-21T01:44:59;101593.97;;;8.64;100.00
59170;BME280;52474;52.236;5.114;2023-03-21T01:47:34;101595.84;;;8.62;100.00
59170;BME280;52474;52.236;5.114;2023-03-21T01:50:18;101588.69;;;8.64;100.00
59170;BME280;52474;52.236;5.114;2023-03-21T01:53:09;101580.09;;;8.60;100.00
59170;BME280;52474;52.236;5.114;2023-03-21T01:55:36;101581.06;;;8.59;100.00
59170;BME280;52474;52.236;5.114;2023-03-21T01:58:12;101586.06;;;8.64;100.00
59170;BME280;52474;52.236;5.114;2023-03-21T02:00:51;101561.50;;;8.49;100.00
59170;BME280;52474;52.236;5.114;2023-03-21T02:03:31;101585.38;;;8.60;100.00
59170;BME280;52474;52.236;5.114;2023-03-21T02:06:32;101572.09;;;8.62;100.00
59170;BME280;52474;52.236;5.114;2023-03-21T02:09:11;101569.66;;;8.59;100.00
59170;BME280;52474;52.236;5.114;2023-03-21T02:11:40;101549.97;;;8.50;100.00
59170;BME280;52474;52.236;5.114;2023-03-21T02:14:12;101558.34;;;8.57;100.00
59170;BME280;52474;52.236;5.114;2023-03-21T02:19:52;101552.88;;;8.60;100.00
59170;BME280;52474;52.236;5.114;2023-03-21T02:28:14;101547.59;;;8.60;100.00
59170;BME280;52474;52.236;5.114;2023-03-21T02:42:06;101540.72;;;8.57;100.00
59170;BME280;52474;52.236;5.114;2023-03-21T02:45:53;101538.16;;;8.56;100.00
59170;BME280;52474;52.236;5.114;2023-03-21T02:48:02;101541.75;;;8.55;100.00
59170;BME280;52474;52.236;5.114;2023-03-21T02:50:51;101539.97;;;8.55;100.00
59170;BME280;52474;52.236;5.114;2023-03-21T02:53:24;101537.41;;;8.54;100.00
59170;BME280;52474;52.236;5.114;2023-03-21T02:55:51;101528.56;;;8.55;100.00
59170;BME280;52474;52.236;5.114;2023-03-21T02:58:21;101517.84;;;8.44;100.00
59170;BME280;52474;52.236;5.114;2023-03-21T03:00:54;101527.72;;;8.54;100.00
59170;BME280;52474;52.236;5.114;2023-03-21T03:03:28;101531.41;;;8.52;100.00
59170;BME280;52474;52.236;5.114;2023-03-21T03:05:58;101509.75;;;8.47;100.00
59170;BME280;52474;52.236;5.114;2023-03-21T03:13:58;101528.00;;;8.50;100.00
59170;BME280;52474;52.236;5.114;2023-03-21T03:19:47;101517.66;;;8.47;100.00
59170;BME280;52474;52.236;5.114;2023-03-21T03:22:33;101481.03;;;8.28;100.00
59170;BME280;52474;52.236;5.114;2023-03-21T03:25:12;101521.16;;;8.47;100.00
59170;BME280;52474;52.236;5.114;2023-03-21T03:27:41;101516.72;;;8.48;100.00
59170;BME280;52474;52.236;5.114;2023-03-21T03:30:10;101512.38;;;8.47;100.00
59170;BME280;52474;52.236;5.114;2023-03-21T03:32:44;101508.56;;;8.51;100.00
59170;BME280;52474;52.236;5.114;2023-03-21T03:35:16;101439.47;;;8.04;100.00
59170;BME280;52474;52.236;5.114;2023-03-21T03:37:44;101512.25;;;8.48;100.00
59170;BME280;52474;52.236;5.114;2023-03-21T03:40:36;101512.38;;;8.47;100.00
59170;BME280;52474;52.236;5.114;2023-03-21T03:43:19;101506.25;;;8.46;100.00
59170;BME280;52474;52.236;5.114;2023-03-21T03:45:51;101502.88;;;8.44;100.00
59170;BME280;52474;52.236;5.114;2023-03-21T03:48:26;101473.22;;;8.26;100.00
59170;BME280;52474;52.236;5.114;2023-03-21T03:51:01;101493.47;;;8.40;100.00
59170;BME280;52474;52.236;5.114;2023-03-21T03:54:02;101493.47;;;8.40;100.00
59170;BME280;52474;52.236;5.114;2023-03-21T03:56:30;101501.25;;;8.42;100.00
59170;BME280;52474;52.236;5.114;2023-03-21T03:58:56;101501.25;;;8.42;100.00
59170;BME280;52474;52.236;5.114;2023-03-21T04:01:36;101469.63;;;8.27;100.00
59170;BME280;52474;52.236;5.114;2023-03-21T04:04:02;101471.22;;;8.30;100.00
59170;BME280;52474;52.236;5.114;2023-03-21T04:06:28;101491.44;;;8.44;100.00
59170;BME280;52474;52.236;5.114;2023-03-21T04:08:55;101495.88;;;8.43;100.00
59170;BME280;52474;52.236;5.114;2023-03-21T04:11:21;101498.63;;;8.42;100.00
59170;BME280;52474;52.236;5.114;2023-03-21T04:13:51;101491.72;;;8.39;100.00
59170;BME280;52474;52.236;5.114;2023-03-21T04:16:20;101488.34;;;8.37;100.00
59170;BME280;52474;52.236;5.114;2023-03-21T04:18:47;101487.41;;;8.38;100.00
59170;BME280;52474;52.236;5.114;2023-03-21T04:21:16;101489.84;;;8.41;100.00
59170;BME280;52474;52.236;5.114;2023-03-21T04:23:42;101492.69;;;8.38;100.00
59170;BME280;52474;52.236;5.114;2023-03-21T04:26:08;101492.50;;;8.41;100.00
59170;BME280;52474;52.236;5.114;2023-03-21T04:28:38;101495.13;;;8.41;100.00
59170;BME280;52474;52.236;5.114;2023-03-21T04:31:28;101489.97;;;8.40;100.00
59170;BME280;52474;52.236;5.114;2023-03-21T04:34:09;101464.44;;;8.26;100.00
59170;BME280;52474;52.236;5.114;2023-03-21T04:36:40;101473.75;;;8.31;100.00
59170;BME280;52474;52.236;5.114;2023-03-21T04:39:13;101477.88;;;8.35;100.00
59170;BME280;52474;52.236;5.114;2023-03-21T04:41:45;101493.63;;;8.37;100.00
59170;BME280;52474;52.236;5.114;2023-03-21T04:44:13;101479.78;;;8.33;100.00
59170;BME280;52474;52.236;5.114;2023-03-21T04:46:41;101476.22;;;8.34;100.00
59170;BME280;52474;52.236;5.114;2023-03-21T04:49:08;101458.53;;;8.22;100.00
59170;BME280;52474;52.236;5.114;2023-03-21T04:51:35;101479.78;;;8.33;100.00
59170;BME280;52474;52.236;5.114;2023-03-21T04:54:02;101471.88;;;8.33;100.00
59170;BME280;52474;52.236;5.114;2023-03-21T04:56:29;101472.81;;;8.32;100.00
59170;BME280;52474;52.236;5.114;2023-03-21T04:59:00;101466.72;;;8.32;100.00
59170;BME280;52474;52.236;5.114;2023-03-21T05:01:27;101469.34;;;8.32;100.00
59170;BME280;52474;52.236;5.114;2023-03-21T05:03:59;101477.06;;;8.35;100.00
59170;BME280;52474;52.236;5.114;2023-03-21T05:06:27;101473.56;;;8.34;100.00
59170;BME280;52474;52.236;5.114;2023-03-21T05:08:54;101469.34;;;8.32;100.00
59170;BME280;52474;52.236;5.114;2023-03-21T05:11:21;101464.44;;;8.26;100.00
59170;BME280;52474;52.236;5.114;2023-03-21T05:13:47;101462.44;;;8.29;100.00
59170;BME280;52474;52.236;5.114;2023-03-21T05:16:13;101473.75;;;8.31;100.00
59170;BME280;52474;52.236;5.114;2023-03-21T05:18:42;101471.13;;;8.31;100.00
59170;BME280;52474;52.236;5.114;2023-03-21T05:21:15;101469.34;;;8.32;100.00
59170;BME280;52474;52.236;5.114;2023-03-21T05:23:43;101407.78;;;7.91;100.00
59170;BME280;52474;52.236;5.114;2023-03-21T05:26:09;101463.63;;;8.25;100.00
59170;BME280;52474;52.236;5.114;2023-03-21T05:28:45;101467.94;;;8.26;100.00
59170;BME280;52474;52.236;5.114;2023-03-21T05:31:14;101460.22;;;8.23;100.00
59170;BME280;52474;52.236;5.114;2023-03-21T05:33:42;101466.03;;;8.28;100.00
59170;BME280;52474;52.236;5.114;2023-03-21T05:36:10;101460.69;;;8.30;100.00
59170;BME280;52474;52.236;5.114;2023-03-21T05:38:36;101437.81;;;8.16;100.00
59170;BME280;52474;52.236;5.114;2023-03-21T05:41:03;101460.84;;;8.27;100.00
59170;BME280;52474;52.236;5.114;2023-03-21T05:43:30;101457.59;;;8.23;100.00
59170;BME280;52474;52.236;5.114;2023-03-21T05:45:56;101454.94;;;8.23;100.00
59170;BME280;52474;52.236;5.114;2023-03-21T05:48:23;101456.63;;;8.24;100.00
59170;BME280;52474;52.236;5.114;2023-03-21T05:51:03;101457.59;;;8.23;100.00
59170;BME280;52474;52.236;5.114;2023-03-21T05:53:29;101453.06;;;8.25;100.00
59170;BME280;52474;52.236;5.114;2023-03-21T05:55:55;101450.63;;;8.22;100.00
59170;BME280;52474;52.236;5.114;2023-03-21T05:58:41;101454.00;;;8.24;100.00
59170;BME280;52474;52.236;5.114;2023-03-21T06:01:07;101448.09;;;8.21;100.00
59170;BME280;52474;52.236;5.114;2023-03-21T06:03:35;101453.06;;;8.25;100.00
59170;BME280;52474;52.236;5.114;2023-03-21T06:06:07;101455.56;;;8.27;100.00
59170;BME280;52474;52.236;5.114;2023-03-21T06:08:38;101460.75;;;8.28;100.00
59170;BME280;52474;52.236;5.114;2023-03-21T06:11:05;101453.91;;;8.26;100.00
59170;BME280;52474;52.236;5.114;2023-03-21T06:13:36;101457.38;;;8.26;100.00
59170;BME280;52474;52.236;5.114;2023-03-21T06:16:02;101454.66;;;8.28;100.00
59170;BME280;52474;52.236;5.114;2023-03-21T06:18:32;101460.13;;;8.25;100.00
59170;BME280;52474;52.236;5.114;2023-03-21T06:21:13;101458.88;;;8.30;100.00
59170;BME280;52474;52.236;5.114;2023-03-21T06:23:39;101461.44;;;8.32;100.00
59170;BME280;52474;52.236;5.114;2023-03-21T06:26:06;101440.91;;;8.23;100.00
59170;BME280;52474;52.236;5.114;2023-03-21T06:28:32;101443.63;;;8.21;100.00
59170;BME280;52474;52.236;5.114;2023-03-21T06:30:58;101460.47;;;8.33;100.00
59170;BME280;52474;52.236;5.114;2023-03-21T06:33:26;101459.50;;;8.34;100.00
59170;BME280;52474;52.236;5.114;2023-03-21T06:35:56;101439.66;;;8.28;100.00
59170;BME280;52474;52.236;5.114;2023-03-21T06:38:23;101460.94;;;8.40;100.00
59170;BME280;52474;52.236;5.114;2023-03-21T06:40:49;101459.78;;;8.44;100.00
59170;BME280;52474;52.236;5.114;2023-03-21T06:43:15;101450.53;;;8.36;100.00
59170;BME280;52474;52.236;5.114;2023-03-21T06:45:42;101457.88;;;8.46;100.00
59170;BME280;52474;52.236;5.114;2023-03-21T06:48:10;101465.06;;;8.44;100.00
59170;BME280;52474;52.236;5.114;2023-03-21T06:50:51;101459.59;;;8.47;100.00
59170;BME280;52474;52.236;5.114;2023-03-21T06:53:20;101458.72;;;8.46;100.00
59170;BME280;52474;52.236;5.114;2023-03-21T06:56:13;101459.47;;;8.48;100.00
59170;BME280;52474;52.236;5.114;2023-03-21T06:58:40;101460.53;;;8.46;100.00
59170;BME280;52474;52.236;5.114;2023-03-21T07:01:12;101447.66;;;8.54;100.00
59170;BME280;52474;52.236;5.114;2023-03-21T07:03:50;101459.06;;;8.54;100.00
59170;BME280;52474;52.236;5.114;2023-03-21T07:06:20;101460.66;;;8.57;100.00
59170;BME280;52474;52.236;5.114;2023-03-21T07:08:46;101469.34;;;8.59;100.00
59170;BME280;52474;52.236;5.114;2023-03-21T07:11:13;101463.94;;;8.60;100.00
59170;BME280;52474;52.236;5.114;2023-03-21T07:13:39;101455.78;;;8.51;100.00
59170;BME280;52474;52.236;5.114;2023-03-21T07:16:05;101457.50;;;8.65;100.00
59170;BME280;52474;52.236;5.114;2023-03-21T07:18:31;101442.28;;;8.55;100.00
59170;BME280;52474;52.236;5.114;2023-03-21T07:20:57;101461.81;;;8.66;100.00
59170;BME280;52474;52.236;5.114;2023-03-21T07:23:24;101467.22;;;8.64;100.00
59170;BME280;52474;52.236;5.114;2023-03-21T07:25:50;101446.50;;;8.58;100.00
59170;BME280;52474;52.236;5.114;2023-03-21T07:28:16;101465.22;;;8.68;100.00
59170;BME280;52474;52.236;5.114;2023-03-21T07:30:43;101451.38;;;8.64;100.00
59170;BME280;52474;52.236;5.114;2023-03-21T07:33:09;101451.91;;;8.69;100.00
59170;BME280;52474;52.236;5.114;2023-03-21T07:35:35;101445.44;;;8.60;100.00
59170;BME280;52474;52.236;5.114;2023-03-21T07:38:03;101441.53;;;8.66;100.00
59170;BME280;52474;52.236;5.114;2023-03-21T07:40:30;101439.47;;;8.71;100.00
59170;BME280;52474;52.236;5.114;2023-03-21T07:42:56;101424.66;;;8.81;100.00
59170;BME280;52474;52.236;5.114;2023-03-21T07:45:32;101424.16;;;8.76;100.00
59170;BME280;52474;52.236;5.114;2023-03-21T07:48:04;101418.00;;;8.76;100.00
59170;BME280;52474;52.236;5.114;2023-03-21T07:50:33;101420.53;;;8.77;100.00
59170;BME280;52474;52.236;5.114;2023-03-21T07:52:59;101423.09;;;8.79;100.00
59170;BME280;52474;52.236;5.114;2023-03-21T07:55:26;101423.81;;;8.81;100.00
59170;BME280;52474;52.236;5.114;2023-03-21T07:57:52;101411.44;;;8.69;100.00
59170;BME280;52474;52.236;5.114;2023-03-21T08:00:20;101421.16;;;8.81;100.00
59170;BME280;52474;52.236;5.114;2023-03-21T08:02:54;101422.66;;;8.85;100.00
59170;BME280;52474;52.236;5.114;2023-03-21T08:05:21;101420.13;;;8.84;100.00
59170;BME280;52474;52.236;5.114;2023-03-21T08:07:49;101423.81;;;8.94;100.00
59170;BME280;52474;52.236;5.114;2023-03-21T08:10:18;101422.44;;;9.01;100.00
59170;BME280;52474;52.236;5.114;2023-03-21T08:12:44;101413.66;;;9.00;100.00
59170;BME280;52474;52.236;5.114;2023-03-21T08:15:12;101419.28;;;9.09;100.00
59170;BME280;52474;52.236;5.114;2023-03-21T08:17:42;101418.72;;;9.16;100.00
59170;BME280;52474;52.236;5.114;2023-03-21T08:20:12;101423.69;;;9.21;100.00
59170;BME280;52474;52.236;5.114;2023-03-21T08:22:42;101419.88;;;9.25;100.00
59170;BME280;52474;52.236;5.114;2023-03-21T08:25:10;101387.75;;;9.18;100.00
59170;BME280;52474;52.236;5.114;2023-03-21T08:27:38;101405.16;;;9.34;100.00
59170;BME280;52474;52.236;5.114;2023-03-21T08:30:05;101400.19;;;9.29;100.00
59170;BME280;52474;52.236;5.114;2023-03-21T08:32:31;101396.41;;;9.33;100.00
59170;BME280;52474;52.236;5.114;2023-03-21T08:35:00;101400.16;;;9.42;100.00
59170;BME280;52474;52.236;5.114;2023-03-21T08:37:27;101399.44;;;9.40;100.00
59170;BME280;52474;52.236;5.114;2023-03-21T08:39:56;101386.75;;;9.32;100.00
59170;BME280;52474;52.236;5.114;2023-03-21T08:42:22;101382.03;;;9.24;100.00
59170;BME280;52474;52.236;5.114;2023-03-21T08:44:48;101390.38;;;9.31;100.00
59170;BME280;52474;52.236;5.114;2023-03-21T08:47:14;101362.59;;;9.26;100.00
59170;BME280;52474;52.236;5.114;2023-03-21T08:49:40;101373.72;;;9.42;100.00
59170;BME280;52474;52.236;5.114;2023-03-21T08:52:09;101355.72;;;9.23;100.00
59170;BME280;52474;52.236;5.114;2023-03-21T08:54:35;101374.19;;;9.36;100.00
59170;BME280;52474;52.236;5.114;2023-03-21T08:57:04;101366.22;;;9.49;100.00
59170;BME280;52474;52.236;5.114;2023-03-21T08:59:30;101344.41;;;9.45;100.00
59170;BME280;52474;52.236;5.114;2023-03-21T09:01:56;101343.16;;;9.51;100.00
59170;BME280;52474;52.236;5.114;2023-03-21T09:04:22;101342.31;;;9.50;100.00
59170;BME280;52474;52.236;5.114;2023-03-21T09:06:50;101365.03;;;9.77;100.00
59170;BME280;52474;52.236;5.114;2023-03-21T09:09:16;101344.00;;;9.75;100.00
59170;BME280;52474;52.236;5.114;2023-03-21T09:11:42;101355.75;;;9.95;100.00
59170;BME280;52474;52.236;5.114;2023-03-21T09:14:08;101348.03;;;10.27;100.00
59170;BME280;52474;52.236;5.114;2023-03-21T09:16:35;101350.88;;;10.48;100.00
59170;BME280;52474;52.236;5.114;2023-03-21T09:19:01;101344.63;;;10.72;100.00
59170;BME280;52474;52.236;5.114;2023-03-21T09:21:27;101340.44;;;10.81;100.00
59170;BME280;52474;52.236;5.114;2023-03-21T09:23:56;101336.56;;;10.73;100.00
59170;BME280;52474;52.236;5.114;2023-03-21T09:26:27;101314.84;;;10.46;100.00
59170;BME280;52474;52.236;5.114;2023-03-21T09:28:54;101319.22;;;10.47;100.00
59170;BME280;52474;52.236;5.114;2023-03-21T09:31:21;101318.38;;;10.58;100.00
59170;BME280;52474;52.236;5.114;2023-03-21T09:33:48;101316.09;;;10.64;100.00
59170;BME280;52474;52.236;5.114;2023-03-21T09:36:15;101295.03;;;10.51;100.00
59170;BME280;52474;52.236;5.114;2023-03-21T09:38:47;101313.78;;;10.60;100.00
59170;BME280;52474;52.236;5.114;2023-03-21T09:44:04;101315.22;;;10.75;100.00
59170;BME280;52474;52.236;5.114;2023-03-21T09:49:32;101318.75;;;10.98;100.00
59170;BME280;52474;52.236;5.114;2023-03-21T09:52:02;101317.16;;;10.62;100.00
59170;BME280;52474;52.236;5.114;2023-03-21T09:54:35;101308.50;;;10.60;100.00
59170;BME280;52474;52.236;5.114;2023-03-21T09:59:49;101314.63;;;10.49;100.00
59170;BME280;52474;52.236;5.114;2023-03-21T10:05:02;101303.66;;;10.87;100.00
59170;BME280;52474;52.236;5.114;2023-03-21T10:07:39;101298.75;;;10.71;100.00
59170;BME280;52474;52.236;5.114;2023-03-21T10:10:13;101296.81;;;10.96;100.00
59170;BME280;52474;52.236;5.114;2023-03-21T10:12:41;101305.97;;;11.03;100.00
59170;BME280;52474;52.236;5.114;2023-03-21T10:15:09;101289.59;;;10.98;100.00
59170;BME280;52474;52.236;5.114;2023-03-21T10:17:47;101308.81;;;11.11;100.00
59170;BME280;52474;52.236;5.114;2023-03-21T10:22:48;101303.03;;;11.17;100.00
59170;BME280;52474;52.236;5.114;2023-03-21T10:25:18;101282.22;;;11.13;100.00
59170;BME280;52474;52.236;5.114;2023-03-21T10:27:46;101305.22;;;11.12;100.00
59170;BME280;52474;52.236;5.114;2023-03-21T10:30:40;101300.13;;;11.21;100.00
59170;BME280;52474;52.236;5.114;2023-03-21T10:33:16;101287.44;;;11.35;100.00
59170;BME280;52474;52.236;5.114;2023-03-21T10:36:15;101291.13;;;11.55;100.00
59170;BME280;52474;52.236;5.114;2023-03-21T10:38:52;101283.88;;;11.25;100.00
59170;BME280;52474;52.236;5.114;2023-03-21T10:41:18;101289.72;;;11.72;100.00
59170;BME280;52474;52.236;5.114;2023-03-21T10:43:46;101275.41;;;11.64;100.00
59170;BME280;52474;52.236;5.114;2023-03-21T10:46:27;101283.63;;;11.60;100.00
59170;BME280;52474;52.236;5.114;2023-03-21T10:48:53;101294.13;;;11.83;100.00
59170;BME280;52474;52.236;5.114;2023-03-21T10:51:35;101273.53;;;11.75;100.00
59170;BME280;52474;52.236;5.114;2023-03-21T10:54:13;101293.13;;;11.95;100.00
59170;BME280;52474;52.236;5.114;2023-03-21T10:56:53;101300.34;;;11.72;100.00
59170;BME280;52474;52.236;5.114;2023-03-21T10:59:20;101295.09;;;11.82;100.00
59170;BME280;52474;52.236;5.114;2023-03-21T11:01:49;101301.19;;;11.61;100.00
59170;BME280;52474;52.236;5.114;2023-03-21T11:04:19;101297.47;;;11.96;100.00
59170;BME280;52474;52.236;5.114;2023-03-21T11:06:50;101298.56;;;11.61;100.00
59170;BME280;52474;52.236;5.114;2023-03-21T11:09:18;101284.06;;;11.45;100.00
59170;BME280;52474;52.236;5.114;2023-03-21T11:11:54;101300.53;;;11.48;100.00
59170;BME280;52474;52.236;5.114;2023-03-21T11:14:43;101275.84;;;12.01;100.00
59170;BME280;52474;52.236;5.114;2023-03-21T11:22:15;101273.22;;;11.36;100.00
59170;BME280;52474;52.236;5.114;2023-03-21T11:24:48;101277.41;;;11.39;100.00
59170;BME280;52474;52.236;5.114;2023-03-21T11:27:15;101278.09;;;11.20;100.00
59170;BME280;52474;52.236;5.114;2023-03-21T11:29:47;101267.50;;;11.09;100.00
59170;BME280;52474;52.236;5.114;2023-03-21T11:35:00;101250.69;;;11.63;100.00
59170;BME280;52474;52.236;5.114;2023-03-21T11:37:42;101252.84;;;12.63;100.00
59170;BME280;52474;52.236;5.114;2023-03-21T11:40:28;101230.69;;;13.03;100.00
59170;BME280;52474;52.236;5.114;2023-03-21T11:42:59;101220.78;;;13.53;100.00
59170;BME280;52474;52.236;5.114;2023-03-21T11:45:34;101237.72;;;13.82;100.00
59170;BME280;52474;52.236;5.114;2023-03-21T11:48:04;101239.16;;;13.37;100.00
59170;BME280;52474;52.236;5.114;2023-03-21T11:50:46;101247.25;;;13.36;100.00
59170;BME280;52474;52.236;5.114;2023-03-21T11:53:47;101257.88;;;12.66;100.00
59170;BME280;52474;52.236;5.114;2023-03-21T12:07:46;101268.06;;;11.56;100.00
59170;BME280;52474;52.236;5.114;2023-03-21T12:16:37;101253.97;;;11.23;100.00
59170;BME280;52474;52.236;5.114;2023-03-21T12:24:53;101233.84;;;12.67;100.00
59170;BME280;52474;52.236;5.114;2023-03-21T12:28:00;101222.16;;;13.09;100.00
59170;BME280;52474;52.236;5.114;2023-03-21T12:30:57;101204.06;;;14.37;100.00
59170;BME280;52474;52.236;5.114;2023-03-21T12:36:23;101205.72;;;14.76;100.00
59170;BME280;52474;52.236;5.114;2023-03-21T12:39:29;101201.41;;;14.37;100.00
59170;BME280;52474;52.236;5.114;2023-03-21T12:42:04;101190.41;;;17.95;100.00
59170;BME280;52474;52.236;5.114;2023-03-21T12:44:39;101188.47;;;16.30;100.00
59170;BME280;52474;52.236;5.114;2023-03-21T12:47:15;101187.13;;;15.74;100.00
59170;BME280;52474;52.236;5.114;2023-03-21T12:49:45;101194.56;;;15.88;100.00
59170;BME280;52474;52.236;5.114;2023-03-21T12:52:13;101165.38;;;14.61;100.00
59170;BME280;52474;52.236;5.114;2023-03-21T12:54:48;101184.03;;;14.33;100.00
59170;BME280;52474;52.236;5.114;2023-03-21T12:57:17;101172.56;;;13.86;100.00
59170;BME280;52474;52.236;5.114;2023-03-21T12:59:58;101173.72;;;14.21;100.00
59170;BME280;52474;52.236;5.114;2023-03-21T13:02:35;101160.47;;;15.20;100.00
59170;BME280;52474;52.236;5.114;2023-03-21T13:07:47;101146.78;;;13.86;100.00
59170;BME280;52474;52.236;5.114;2023-03-21T13:10:17;101165.78;;;13.54;100.00
59170;BME280;52474;52.236;5.114;2023-03-21T13:13:08;101163.19;;;12.84;100.00
59170;BME280;52474;52.236;5.114;2023-03-21T13:15:42;101174.09;;;12.72;100.00
59170;BME280;52474;52.236;5.114;2023-03-21T13:20:52;101169.22;;;12.27;100.00
59170;BME280;52474;52.236;5.114;2023-03-21T13:23:34;101165.38;;;12.10;100.00
59170;BME280;52474;52.236;5.114;2023-03-21T13:26:02;101161.13;;;11.97;100.00
59170;BME280;52474;52.236;5.114;2023-03-21T13:28:46;101166.38;;;11.88;100.00
59170;BME280;52474;52.236;5.114;2023-03-21T13:31:23;101169.88;;;11.67;100.00
59170;BME280;52474;52.236;5.114;2023-03-21T13:33:53;101168.44;;;11.63;100.00
59170;BME280;52474;52.236;5.114;2023-03-21T13:36:29;101163.25;;;11.61;100.00
59170;BME280;52474;52.236;5.114;2023-03-21T13:39:03;101156.59;;;11.67;100.00
59170;BME280;52474;52.236;5.114;2023-03-21T13:41:38;101158.63;;;12.06;100.00
59170;BME280;52474;52.236;5.114;2023-03-21T13:46:52;101134.56;;;12.38;100.00
59170;BME280;52474;52.236;5.114;2023-03-21T13:49:35;101137.91;;;13.00;100.00
59170;BME280;52474;52.236;5.114;2023-03-21T13:54:44;101145.41;;;12.56;100.00
59170;BME280;52474;52.236;5.114;2023-03-21T14:00:26;101140.34;;;12.02;100.00
59170;BME280;52474;52.236;5.114;2023-03-21T14:02:59;101134.78;;;11.85;100.00
59170;BME280;52474;52.236;5.114;2023-03-21T14:05:33;101142.38;;;11.89;100.00
59170;BME280;52474;52.236;5.114;2023-03-21T14:08:03;101139.09;;;11.86;100.00
59170;BME280;52474;52.236;5.114;2023-03-21T14:10:33;101135.28;;;11.78;100.00
59170;BME280;52474;52.236;5.114;2023-03-21T14:13:01;101127.91;;;11.82;100.00
59170;BME280;52474;52.236;5.114;2023-03-21T14:15:36;101123.91;;;11.88;100.00
59170;BME280;52474;52.236;5.114;2023-03-21T14:18:05;101127.91;;;11.82;100.00
59170;BME280;52474;52.236;5.114;2023-03-21T14:20:35;101117.94;;;11.95;100.00
59170;BME280;52474;52.236;5.114;2023-03-21T14:23:07;101108.00;;;11.88;100.00
59170;BME280;52474;52.236;5.114;2023-03-21T14:25:38;101122.16;;;11.98;100.00
59170;BME280;52474;52.236;5.114;2023-03-21T14:28:13;101114.72;;;11.92;100.00
59170;BME280;52474;52.236;5.114;2023-03-21T14:30:43;101111.25;;;12.01;100.00
59170;BME280;52474;52.236;5.114;2023-03-21T14:33:31;101130.06;;;11.88;100.00
59170;BME280;52474;52.236;5.114;2023-03-21T14:36:02;101118.94;;;11.73;100.00
59170;BME280;52474;52.236;5.114;2023-03-21T14:38:35;101119.84;;;11.63;100.00
59170;BME280;52474;52.236;5.114;2023-03-21T14:41:02;101122.56;;;11.51;100.00